Time;durP1;ratioP1;P1;durP2;ratioP2;P2;SDS_P1;SDS_P2;PMS_P1;PMS_P2;Temp;Humidity;BMP_temperature;BMP_pressure;BME280_temperature;BME280_humidity;BME280_pressure;Samples;Min_cycle;Max_cycle;Signal;HPM_P1;HPM_P2
2024/03/19 00:01:44;;;;;;;1.50;1.23;;;10.50;98.20;;;;;;4881493;29;20470;-79
2024/03/19 00:04:10;;;;;;;1.50;1.20;;;10.40;98.20;;;;;;4882162;29;20584;-79
2024/03/19 00:06:37;;;;;;;1.50;1.20;;;10.40;98.20;;;;;;4882479;29;20497;-79
2024/03/19 00:09:05;;;;;;;1.50;1.10;;;10.50;98.20;;;;;;4881041;29;20474;-78
2024/03/19 00:11:32;;;;;;;1.50;1.10;;;10.50;98.20;;;;;;4880154;29;20475;-79
2024/03/19 00:14:00;;;;;;;1.50;1.10;;;10.40;98.20;;;;;;4881438;29;20504;-79
2024/03/19 00:16:27;;;;;;;1.50;1.20;;;10.40;98.20;;;;;;4877356;29;20670;-76
2024/03/19 00:18:54;;;;;;;1.50;1.10;;;10.40;98.20;;;;;;4880520;29;20470;-78
2024/03/19 00:21:21;;;;;;;1.50;1.10;;;10.40;98.20;;;;;;4874747;29;20475;-79
2024/03/19 00:23:47;;;;;;;1.50;1.00;;;10.40;98.20;;;;;;4877704;29;20498;-79
2024/03/19 00:26:15;;;;;;;1.50;1.10;;;10.40;98.20;;;;;;4877628;29;20505;-79
2024/03/19 00:28:42;;;;;;;1.50;1.10;;;10.30;98.20;;;;;;4876825;29;20466;-78
2024/03/19 00:31:10;;;;;;;1.50;1.10;;;10.30;98.20;;;;;;4876997;29;20482;-78
2024/03/19 00:33:37;;;;;;;1.50;1.13;;;10.30;98.20;;;;;;4876740;29;20471;-78
2024/03/19 00:36:07;;;;;;;1.50;1.10;;;10.30;98.20;;;;;;4876665;29;20540;-78
2024/03/19 00:38:34;;;;;;;1.50;1.20;;;10.30;98.20;;;;;;4876402;29;20959;-78
2024/03/19 00:41:01;;;;;;;1.50;1.17;;;10.30;98.20;;;;;;4876497;29;20533;-78
2024/03/19 00:43:28;;;;;;;1.50;1.10;;;10.30;98.20;;;;;;4874869;29;20527;-79
2024/03/19 00:45:55;;;;;;;1.50;1.00;;;10.30;98.20;;;;;;4876265;29;20836;-79
2024/03/19 00:48:24;;;;;;;1.50;1.10;;;10.30;98.20;;;;;;4875994;29;20482;-78
2024/03/19 00:50:51;;;;;;;1.50;1.20;;;10.20;98.20;;;;;;4875514;29;20474;-78
2024/03/19 00:53:18;;;;;;;1.50;1.10;;;10.20;98.20;;;;;;4873148;29;20561;-78
2024/03/19 00:55:45;;;;;;;1.50;1.10;;;10.20;98.20;;;;;;4878616;29;20466;-78
2024/03/19 00:58:14;;;;;;;1.50;1.20;;;10.20;98.20;;;;;;4876032;29;20530;-78
2024/03/19 01:00:41;;;;;;;1.50;1.10;;;10.20;98.20;;;;;;4874520;29;20471;-78
2024/03/19 01:03:08;;;;;;;1.50;1.10;;;10.20;98.20;;;;;;4876442;29;21009;-78
2024/03/19 01:05:36;;;;;;;1.50;1.10;;;10.20;98.20;;;;;;4875332;29;20481;-78
2024/03/19 01:08:06;;;;;;;1.50;1.10;;;10.20;98.20;;;;;;4875545;29;20486;-78
2024/03/19 01:10:34;;;;;;;2.07;1.50;;;10.20;98.20;;;;;;4877341;29;20574;-78
2024/03/19 01:13:00;;;;;;;1.50;1.10;;;10.20;98.20;;;;;;4875242;29;20467;-78
2024/03/19 01:15:29;;;;;;;1.50;1.10;;;10.10;98.20;;;;;;4874617;29;20475;-78
2024/03/19 01:17:56;;;;;;;1.50;1.10;;;10.20;98.20;;;;;;4877630;29;20623;-78
2024/03/19 01:20:23;;;;;;;1.50;1.00;;;10.10;98.20;;;;;;4877412;29;20481;-79
2024/03/19 01:22:51;;;;;;;1.50;1.10;;;10.10;98.20;;;;;;4876678;29;20497;-78
2024/03/19 01:25:18;;;;;;;1.50;1.10;;;10.10;98.20;;;;;;4876745;29;20474;-78
2024/03/19 01:27:46;;;;;;;1.50;1.17;;;10.10;98.20;;;;;;4877360;29;20558;-78
2024/03/19 01:30:16;;;;;;;1.50;1.10;;;10.10;98.20;;;;;;4877005;29;20485;-78
2024/03/19 01:32:42;;;;;;;1.50;1.10;;;10.10;98.20;;;;;;4874967;29;20879;-79
2024/03/19 01:35:11;;;;;;;1.50;1.10;;;10.10;98.20;;;;;;4878240;29;20474;-78
2024/03/19 01:37:38;;;;;;;1.50;1.17;;;10.10;98.20;;;;;;4876982;29;20547;-78
2024/03/19 01:40:12;;;;;;;1.50;1.10;;;10.00;98.20;;;;;;4877792;29;20967;-78
2024/03/19 01:42:39;;;;;;;1.50;1.10;;;10.00;98.20;;;;;;4877164;29;20772;-78
2024/03/19 01:45:11;;;;;;;1.50;1.10;;;10.00;98.20;;;;;;4879050;29;20559;-78
2024/03/19 01:47:38;;;;;;;1.50;1.10;;;10.00;98.20;;;;;;4875535;29;20943;-78
2024/03/19 01:50:08;;;;;;;1.50;1.10;;;10.00;98.20;;;;;;4879058;29;20478;-79
2024/03/19 01:52:38;;;;;;;1.50;1.00;;;10.00;98.20;;;;;;4877698;29;20466;-78
2024/03/19 01:55:08;;;;;;;1.50;1.10;;;10.00;98.20;;;;;;4876732;29;20478;-78
2024/03/19 01:57:35;;;;;;;1.50;1.10;;;10.00;98.20;;;;;;4873339;29;20487;-78
2024/03/19 02:00:04;;;;;;;1.50;1.10;;;10.00;98.20;;;;;;4879491;29;20474;-78
2024/03/19 02:02:34;;;;;;;1.50;1.07;;;9.90;98.20;;;;;;4876526;29;20471;-78
2024/03/19 02:05:02;;;;;;;1.50;1.00;;;9.90;98.20;;;;;;4878452;29;20475;-78
2024/03/19 02:07:28;;;;;;;1.50;1.03;;;9.90;98.20;;;;;;4875336;29;20491;-78
2024/03/19 02:09:56;;;;;;;1.50;1.13;;;9.80;98.20;;;;;;4877327;29;20479;-79
2024/03/19 02:12:24;;;;;;;1.57;1.20;;;9.80;98.20;;;;;;4876375;29;20479;-78
2024/03/19 02:14:52;;;;;;;1.60;1.20;;;9.80;98.20;;;;;;4877822;29;20470;-78
2024/03/19 02:17:20;;;;;;;1.50;1.20;;;9.70;98.20;;;;;;4875069;29;20494;-78
2024/03/19 02:19:48;;;;;;;1.50;1.10;;;9.70;98.20;;;;;;4878519;29;21027;-78
2024/03/19 02:22:16;;;;;;;1.50;1.10;;;9.70;98.20;;;;;;4878442;29;20560;-79
2024/03/19 02:24:44;;;;;;;1.50;1.10;;;9.60;98.20;;;;;;4875548;29;20857;-79
2024/03/19 02:27:13;;;;;;;1.50;1.20;;;9.60;98.20;;;;;;4876269;29;20505;-79
2024/03/19 02:29:43;;;;;;;1.50;1.10;;;9.50;98.20;;;;;;4873466;29;20490;-80
2024/03/19 02:32:10;;;;;;;1.50;1.20;;;9.50;98.20;;;;;;4874578;29;20470;-77
2024/03/19 02:34:37;;;;;;;1.50;1.20;;;9.50;98.20;;;;;;4870138;29;20758;-78
2024/03/19 02:37:04;;;;;;;1.50;1.10;;;9.50;98.20;;;;;;4869157;29;20521;-77
2024/03/19 02:39:31;;;;;;;1.53;1.10;;;9.50;98.20;;;;;;4874226;29;20486;-77
2024/03/19 02:42:00;;;;;;;1.50;1.07;;;9.40;98.20;;;;;;4871130;29;20474;-77
2024/03/19 02:44:27;;;;;;;1.53;1.13;;;9.40;98.20;;;;;;4870860;29;20920;-77
2024/03/19 02:46:53;;;;;;;1.50;1.20;;;9.40;98.20;;;;;;4870721;29;20891;-78
2024/03/19 02:49:20;;;;;;;1.50;1.10;;;9.50;98.20;;;;;;4869853;29;20474;-77
2024/03/19 02:51:47;;;;;;;1.50;1.10;;;9.50;98.20;;;;;;4870420;29;20512;-77
2024/03/19 02:54:14;;;;;;;1.50;1.10;;;9.50;98.20;;;;;;4870353;29;20519;-77
2024/03/19 02:56:40;;;;;;;1.50;1.10;;;9.50;98.20;;;;;;4864510;29;20501;-77
2024/03/19 02:59:09;;;;;;;1.50;1.10;;;9.50;98.20;;;;;;4873302;29;20475;-77
2024/03/19 03:01:36;;;;;;;1.53;1.10;;;9.50;98.20;;;;;;4872795;29;20474;-77
2024/03/19 03:04:02;;;;;;;1.50;1.10;;;9.60;98.20;;;;;;4873839;29;20490;-77
2024/03/19 03:06:29;;;;;;;1.50;1.00;;;9.60;98.20;;;;;;4871779;29;20482;-77
2024/03/19 03:08:57;;;;;;;1.50;1.20;;;9.60;98.20;;;;;;4875701;29;20471;-77
2024/03/19 03:11:23;;;;;;;1.50;1.10;;;9.60;98.20;;;;;;4876128;29;20481;-77
2024/03/19 03:13:49;;;;;;;1.50;1.00;;;9.60;98.20;;;;;;4874204;29;20473;-77
2024/03/19 03:16:17;;;;;;;1.50;1.10;;;9.60;98.20;;;;;;4877862;29;20490;-77
2024/03/19 03:18:44;;;;;;;1.50;1.10;;;9.60;98.20;;;;;;4874647;29;20273;-77
2024/03/19 03:21:11;;;;;;;1.60;1.43;;;9.60;98.20;;;;;;4873434;29;20474;-77
2024/03/19 03:23:39;;;;;;;1.50;1.10;;;9.70;98.20;;;;;;4872378;29;20526;-77
2024/03/19 03:26:06;;;;;;;1.50;1.10;;;9.70;98.20;;;;;;4871729;29;20478;-77
2024/03/19 03:28:34;;;;;;;1.50;1.10;;;9.70;98.20;;;;;;4873828;29;20509;-77
2024/03/19 03:31:01;;;;;;;1.50;1.07;;;9.70;98.20;;;;;;4874136;29;20687;-77
2024/03/19 03:33:30;;;;;;;1.50;1.10;;;9.70;98.20;;;;;;4873835;29;20478;-78
2024/03/19 03:35:57;;;;;;;1.50;1.10;;;9.70;98.20;;;;;;4874355;29;21592;-77
2024/03/19 03:38:24;;;;;;;1.60;1.20;;;9.70;98.20;;;;;;4874227;29;20485;-77
2024/03/19 03:40:53;;;;;;;1.50;1.10;;;9.70;98.20;;;;;;4874503;29;20474;-77
2024/03/19 03:43:20;;;;;;;1.50;1.10;;;9.70;98.20;;;;;;4877343;29;20490;-77
2024/03/19 03:45:47;;;;;;;1.50;1.10;;;9.70;98.20;;;;;;4877548;29;20474;-77
2024/03/19 03:48:13;;;;;;;1.50;1.20;;;9.70;98.20;;;;;;4877338;29;20489;-77
2024/03/19 03:50:42;;;;;;;1.50;1.20;;;9.70;98.20;;;;;;4879100;29;20482;-78
2024/03/19 03:53:09;;;;;;;1.50;1.10;;;9.60;98.20;;;;;;4878829;29;20466;-77
2024/03/19 03:55:36;;;;;;;1.50;1.20;;;9.60;98.20;;;;;;4878747;29;20529;-77
2024/03/19 03:58:03;;;;;;;1.50;1.10;;;9.60;98.20;;;;;;4875073;29;20494;-77
2024/03/19 04:00:32;;;;;;;1.50;1.20;;;9.60;98.20;;;;;;4879363;29;20477;-77
2024/03/19 04:02:59;;;;;;;1.50;1.00;;;9.60;98.20;;;;;;4878661;29;20482;-77
2024/03/19 04:05:26;;;;;;;1.50;1.10;;;9.60;98.20;;;;;;4881200;29;21102;-77
2024/03/19 04:07:54;;;;;;;1.50;1.20;;;9.60;98.20;;;;;;4880071;29;20494;-77
2024/03/19 04:10:21;;;;;;;1.50;1.00;;;9.60;98.20;;;;;;4880279;29;20493;-77
2024/03/19 04:12:49;;;;;;;1.50;1.20;;;9.70;98.20;;;;;;4878326;29;20470;-77
2024/03/19 04:15:16;;;;;;;1.50;1.17;;;9.60;98.20;;;;;;4879946;29;21093;-77
2024/03/19 04:17:43;;;;;;;1.50;1.10;;;9.60;98.20;;;;;;4879290;29;20562;-77
2024/03/19 04:20:11;;;;;;;1.50;1.10;;;9.60;98.20;;;;;;4879874;29;20530;-77
2024/03/19 04:22:38;;;;;;;1.50;1.17;;;9.60;98.20;;;;;;4877308;29;20906;-77
2024/03/19 04:25:08;;;;;;;1.50;1.07;;;9.60;98.20;;;;;;4879135;29;20490;-78
2024/03/19 04:27:35;;;;;;;1.50;1.10;;;9.50;98.20;;;;;;4876243;29;20562;-77
2024/03/19 04:30:02;;;;;;;1.50;1.10;;;9.50;98.20;;;;;;4879185;29;20804;-77
2024/03/19 04:32:29;;;;;;;1.50;1.10;;;9.50;98.20;;;;;;4878645;29;20786;-77
2024/03/19 04:34:55;;;;;;;1.50;1.13;;;9.50;98.20;;;;;;4878525;29;20846;-77
2024/03/19 04:37:22;;;;;;;1.50;1.10;;;9.50;98.20;;;;;;4878756;29;20494;-77
2024/03/19 04:39:49;;;;;;;1.53;1.20;;;9.50;98.20;;;;;;4879023;29;20861;-77
2024/03/19 04:42:19;;;;;;;1.53;1.20;;;9.50;98.20;;;;;;4876368;29;20863;-77
2024/03/19 04:44:46;;;;;;;1.50;1.10;;;9.50;98.20;;;;;;4874365;29;20504;-77
2024/03/19 04:47:16;;;;;;;1.50;1.20;;;9.50;98.20;;;;;;4877169;29;20574;-77
2024/03/19 04:49:43;;;;;;;1.50;1.20;;;9.50;98.20;;;;;;4877292;29;20467;-80
2024/03/19 04:52:10;;;;;;;1.50;1.10;;;9.50;98.20;;;;;;4879787;29;20868;-80
2024/03/19 04:54:37;;;;;;;1.50;1.10;;;9.50;98.20;;;;;;4878724;29;20489;-79
2024/03/19 04:57:04;;;;;;;1.50;1.10;;;9.50;98.20;;;;;;4884036;23;20786;-80
2024/03/19 04:59:33;;;;;;;1.50;1.30;;;9.60;98.20;;;;;;4897876;29;20516;-79
2024/03/19 05:01:59;;;;;;;1.50;1.20;;;9.60;98.20;;;;;;4900818;29;20837;-79
2024/03/19 05:04:26;;;;;;;1.50;1.10;;;9.60;98.20;;;;;;4898792;29;20513;-77
2024/03/19 05:06:53;;;;;;;1.50;1.10;;;9.60;98.20;;;;;;4894707;29;20474;-77
2024/03/19 05:09:20;;;;;;;1.50;1.10;;;9.60;98.20;;;;;;4897534;29;20469;-77
2024/03/19 05:11:47;;;;;;;1.50;1.10;;;9.60;98.20;;;;;;4894084;29;20474;-78
2024/03/19 05:14:14;;;;;;;1.50;1.20;;;9.60;98.20;;;;;;4897161;29;20859;-77
2024/03/19 05:16:42;;;;;;;1.50;1.10;;;9.60;98.20;;;;;;4896114;29;20956;-77
2024/03/19 05:19:08;;;;;;;1.50;1.10;;;9.60;98.20;;;;;;4897975;29;20520;-77
2024/03/19 05:21:35;;;;;;;1.50;1.10;;;9.60;98.20;;;;;;4896762;29;21151;-77
2024/03/19 05:24:02;;;;;;;1.50;1.10;;;9.60;98.20;;;;;;4895367;29;20493;-78
2024/03/19 05:26:29;;;;;;;1.50;1.10;;;9.70;98.20;;;;;;4897313;29;20969;-78
2024/03/19 05:28:56;;;;;;;1.50;1.10;;;9.70;98.20;;;;;;4897443;29;20489;-77
2024/03/19 05:31:24;;;;;;;1.50;1.20;;;9.70;98.20;;;;;;4898559;29;20466;-77
2024/03/19 05:33:52;;;;;;;1.50;1.20;;;9.70;98.20;;;;;;4896869;29;20839;-78
2024/03/19 05:36:19;;;;;;;1.50;1.00;;;9.70;98.20;;;;;;4896130;29;20525;-77
2024/03/19 05:38:46;;;;;;;1.50;1.10;;;9.70;98.20;;;;;;4896400;29;20489;-78
2024/03/19 05:41:14;;;;;;;1.50;1.10;;;9.70;98.20;;;;;;4903429;29;20523;-78
2024/03/19 05:43:41;;;;;;;1.50;1.10;;;9.70;98.20;;;;;;4899447;29;20469;-79
2024/03/19 05:46:08;;;;;;;1.50;1.20;;;9.80;98.20;;;;;;4904636;29;20473;-79
2024/03/19 05:48:37;;;;;;;1.50;1.10;;;9.70;98.20;;;;;;4902314;29;20584;-80
2024/03/19 05:51:05;;;;;;;1.50;1.03;;;9.70;98.20;;;;;;4901078;29;20469;-79
2024/03/19 05:53:32;;;;;;;1.50;1.10;;;9.70;98.20;;;;;;4898697;29;20479;-79
2024/03/19 05:56:01;;;;;;;1.60;1.47;;;9.70;98.20;;;;;;4900461;29;20473;-79
2024/03/19 05:58:28;;;;;;;1.50;1.00;;;9.70;98.20;;;;;;4900513;29;20906;-80
2024/03/19 06:00:55;;;;;;;1.50;1.10;;;9.60;98.20;;;;;;4900158;29;20469;-79
2024/03/19 06:03:22;;;;;;;2.27;2.07;;;9.60;98.20;;;;;;4903611;29;20540;-79
2024/03/19 06:05:51;;;;;;;1.50;1.10;;;9.60;98.20;;;;;;4898651;29;20489;-79
2024/03/19 06:08:21;;;;;;;1.50;1.10;;;9.60;98.20;;;;;;4901810;29;20985;-81
2024/03/19 06:10:48;;;;;;;1.50;1.20;;;9.60;98.20;;;;;;4900320;29;21262;-80
2024/03/19 06:13:15;;;;;;;1.50;1.00;;;9.60;98.20;;;;;;4901333;29;20466;-79
2024/03/19 06:15:42;;;;;;;1.50;1.10;;;9.60;98.20;;;;;;4900415;29;20475;-81
2024/03/19 06:18:08;;;;;;;1.50;1.20;;;9.60;98.20;;;;;;4900293;29;20490;-80
2024/03/19 06:20:35;;;;;;;1.50;1.10;;;9.70;98.20;;;;;;4880846;29;20803;-77
2024/03/19 06:23:02;;;;;;;2.17;1.97;;;9.70;98.20;;;;;;4877561;29;20461;-78
2024/03/19 06:25:30;;;;;;;1.50;1.07;;;9.70;98.20;;;;;;4895808;29;20492;-78
2024/03/19 06:27:57;;;;;;;1.50;1.10;;;9.70;98.20;;;;;;4897404;29;20498;-80
2024/03/19 06:30:24;;;;;;;1.50;1.03;;;9.70;98.20;;;;;;4895869;29;20473;-79
2024/03/19 06:32:51;;;;;;;1.50;1.10;;;9.80;98.20;;;;;;4896993;29;20473;-80
2024/03/19 06:35:18;;;;;;;1.50;1.10;;;9.80;98.20;;;;;;4900359;29;20477;-81
2024/03/19 06:37:46;;;;;;;3.27;3.00;;;9.90;98.20;;;;;;4896969;29;20489;-81
2024/03/19 06:40:13;;;;;;;1.50;1.10;;;9.90;98.20;;;;;;4909118;29;20929;-80
2024/03/19 06:42:43;;;;;;;1.50;1.20;;;10.00;98.20;;;;;;4905423;29;20537;-81
2024/03/19 06:45:11;;;;;;;1.50;1.27;;;10.00;98.20;;;;;;4904647;29;20486;-81
2024/03/19 06:47:38;;;;;;;1.60;1.47;;;10.10;98.20;;;;;;4902907;29;20581;-79
2024/03/19 06:50:06;;;;;;;1.50;1.07;;;10.20;98.20;;;;;;4900382;29;20973;-79
2024/03/19 06:52:33;;;;;;;1.50;1.10;;;10.30;98.20;;;;;;4903539;29;20773;-80
2024/03/19 06:55:00;;;;;;;1.50;1.20;;;10.40;98.20;;;;;;4902429;29;20458;-80
2024/03/19 06:57:28;;;;;;;1.50;1.10;;;10.50;98.20;;;;;;4902876;29;20685;-81
2024/03/19 06:59:57;;;;;;;1.50;1.20;;;10.50;98.20;;;;;;4902418;29;20540;-81
2024/03/19 07:02:24;;;;;;;1.50;1.00;;;10.50;98.20;;;;;;4902642;29;20549;-80
2024/03/19 07:04:51;;;;;;;1.50;1.10;;;10.60;98.20;;;;;;4902365;29;20540;-78
2024/03/19 07:07:19;;;;;;;1.53;1.10;;;10.60;98.20;;;;;;4906164;29;20500;-79
2024/03/19 07:09:46;;;;;;;1.50;1.17;;;10.60;98.20;;;;;;4901916;29;20468;-77
2024/03/19 07:12:12;;;;;;;1.50;1.10;;;10.60;98.20;;;;;;4908339;29;20507;-82
2024/03/19 07:14:39;;;;;;;1.50;1.20;;;10.70;98.20;;;;;;4901927;29;20466;-81
2024/03/19 07:17:08;;;;;;;1.50;1.10;;;10.70;98.20;;;;;;4904636;29;20838;-78
2024/03/19 07:19:35;;;;;;;1.50;1.10;;;10.80;98.20;;;;;;4904887;29;20525;-80
2024/03/19 07:22:04;;;;;;;1.50;1.00;;;10.80;98.20;;;;;;4905884;29;20525;-80
2024/03/19 07:24:31;;;;;;;1.50;1.10;;;10.90;98.20;;;;;;4908252;29;20496;-82
2024/03/19 07:26:58;;;;;;;1.50;1.10;;;11.00;98.20;;;;;;4904458;29;20505;-80
2024/03/19 07:29:25;;;;;;;1.50;1.10;;;11.00;98.20;;;;;;4905478;29;20474;-79
2024/03/19 07:31:54;;;;;;;1.50;1.10;;;11.00;98.20;;;;;;4904110;29;20505;-80
2024/03/19 07:34:22;;;;;;;1.50;1.00;;;10.90;98.20;;;;;;4905172;29;20469;-81
2024/03/19 07:36:50;;;;;;;1.50;1.10;;;10.90;98.20;;;;;;4904613;29;20473;-81
2024/03/19 07:39:17;;;;;;;1.50;1.10;;;10.90;98.20;;;;;;4906731;29;20497;-80
2024/03/19 07:41:45;;;;;;;1.50;1.00;;;10.90;98.20;;;;;;4904280;29;20461;-80
2024/03/19 07:44:12;;;;;;;1.50;1.10;;;10.90;98.20;;;;;;4905169;29;21153;-80
2024/03/19 07:46:39;;;;;;;1.50;1.00;;;10.90;98.20;;;;;;4902694;29;20484;-82
2024/03/19 07:49:06;;;;;;;1.50;1.00;;;11.00;98.20;;;;;;4903456;29;20601;-80
2024/03/19 07:51:34;;;;;;;1.50;1.00;;;10.90;98.20;;;;;;4904219;29;20489;-79
2024/03/19 07:54:01;;;;;;;1.50;1.00;;;10.90;98.20;;;;;;4902054;29;20468;-80
2024/03/19 07:56:30;;;;;;;1.50;1.00;;;10.90;98.20;;;;;;4910277;29;20467;-80
2024/03/19 07:58:57;;;;;;;1.50;1.10;;;11.00;98.20;;;;;;4903559;29;20615;-82
2024/03/19 08:01:24;;;;;;;1.50;1.03;;;11.00;98.20;;;;;;4904812;29;20517;-81
2024/03/19 08:03:51;;;;;;;1.50;1.00;;;11.00;98.20;;;;;;4903971;29;20466;-78
2024/03/19 08:06:17;;;;;;;1.50;1.10;;;11.00;98.20;;;;;;4909078;29;20495;-79
2024/03/19 08:08:45;;;;;;;1.50;1.10;;;11.10;98.20;;;;;;4910207;29;20494;-82
2024/03/19 08:11:12;;;;;;;1.50;1.10;;;11.20;98.20;;;;;;4905002;29;20557;-81
2024/03/19 08:13:39;;;;;;;1.50;1.00;;;11.20;98.20;;;;;;4903478;29;20847;-79
2024/03/19 08:16:07;;;;;;;1.50;1.10;;;11.30;98.20;;;;;;4906881;29;20493;-80
2024/03/19 08:18:34;;;;;;;1.50;1.10;;;11.40;98.20;;;;;;4907153;29;20485;-80
2024/03/19 08:21:01;;;;;;;1.50;1.10;;;11.40;98.20;;;;;;4904559;29;20476;-81
2024/03/19 08:23:28;;;;;;;1.50;1.00;;;11.40;98.20;;;;;;4897092;29;20473;-80
2024/03/19 08:25:56;;;;;;;1.70;1.57;;;11.40;98.20;;;;;;4903574;29;20501;-79
2024/03/19 08:28:22;;;;;;;1.50;1.00;;;11.40;98.20;;;;;;4904123;29;20495;-79
2024/03/19 08:30:50;;;;;;;1.50;0.90;;;11.40;98.20;;;;;;4903597;29;20473;-80
2024/03/19 08:33:17;;;;;;;1.50;1.00;;;11.40;98.20;;;;;;4905367;29;20469;-79
2024/03/19 08:35:43;;;;;;;1.50;1.10;;;11.40;98.20;;;;;;4904332;29;20461;-80
2024/03/19 08:38:10;;;;;;;1.50;1.00;;;11.40;98.20;;;;;;4904573;29;20499;-80
2024/03/19 08:40:37;;;;;;;1.50;1.07;;;11.50;98.20;;;;;;4911727;29;20527;-79
2024/03/19 08:43:05;;;;;;;1.50;1.00;;;11.50;98.20;;;;;;4903718;29;20462;-80
2024/03/19 08:45:32;;;;;;;1.50;1.00;;;11.50;98.20;;;;;;4911392;29;20516;-79
2024/03/19 08:47:59;;;;;;;1.50;1.00;;;11.60;98.20;;;;;;4904527;29;20489;-79
2024/03/19 08:50:26;;;;;;;1.50;1.00;;;11.60;98.20;;;;;;4903542;29;20470;-79
2024/03/19 08:52:52;;;;;;;1.50;1.10;;;11.60;98.20;;;;;;4901076;29;20465;-78
2024/03/19 08:55:19;;;;;;;1.50;1.07;;;11.60;98.20;;;;;;4893692;29;20469;-77
2024/03/19 08:57:46;;;;;;;1.50;1.00;;;11.70;98.20;;;;;;4895713;29;20856;-78
2024/03/19 09:00:16;;;;;;;1.50;1.10;;;11.70;98.20;;;;;;4896774;29;20474;-78
2024/03/19 09:02:44;;;;;;;1.50;1.00;;;11.80;98.20;;;;;;4895247;29;20854;-78
2024/03/19 09:05:11;;;;;;;1.50;1.10;;;12.00;98.20;;;;;;4897128;29;20489;-78
2024/03/19 09:07:41;;;;;;;1.50;1.00;;;12.10;98.20;;;;;;4896810;29;20995;-79
2024/03/19 09:10:09;;;;;;;1.50;1.00;;;12.20;98.20;;;;;;4901183;29;20502;-81
2024/03/19 09:12:36;;;;;;;1.50;1.00;;;12.40;98.20;;;;;;4905236;29;20771;-77
2024/03/19 09:15:04;;;;;;;1.50;1.00;;;12.50;98.20;;;;;;4896023;29;20474;-78
2024/03/19 09:17:32;;;;;;;1.50;1.00;;;12.50;98.20;;;;;;4897228;29;20486;-78
2024/03/19 09:19:59;;;;;;;1.50;1.00;;;12.60;98.20;;;;;;4899396;29;20477;-80
2024/03/19 09:22:26;;;;;;;1.50;1.10;;;12.70;98.20;;;;;;4900237;29;20569;-79
2024/03/19 09:24:52;;;;;;;1.50;1.10;;;12.80;98.20;;;;;;4897815;29;20477;-79
2024/03/19 09:27:19;;;;;;;1.50;1.00;;;13.00;98.20;;;;;;4899968;29;20504;-80
2024/03/19 09:29:46;;;;;;;1.50;1.00;;;13.10;98.20;;;;;;4898549;29;20862;-80
2024/03/19 09:32:12;;;;;;;1.50;0.90;;;13.20;98.20;;;;;;4898164;29;20474;-79
2024/03/19 09:34:41;;;;;;;1.50;1.00;;;13.40;98.20;;;;;;4899889;29;20969;-79
2024/03/19 09:37:07;;;;;;;1.50;1.00;;;13.50;98.20;;;;;;4897002;29;20466;-78
2024/03/19 09:39:34;;;;;;;1.50;1.10;;;13.70;98.20;;;;;;4896991;29;20681;-82
2024/03/19 09:42:06;;;;;;;1.50;0.90;;;13.90;98.20;;;;;;4895245;29;20489;-82
2024/03/19 09:44:33;;;;;;;1.53;1.10;;;14.10;98.20;;;;;;4897214;29;20476;-82
2024/03/19 09:47:00;;;;;;;1.50;1.00;;;14.20;98.20;;;;;;4893162;29;20600;-83
2024/03/19 09:49:32;;;;;;;1.50;0.90;;;14.40;98.20;;;;;;4896340;29;20470;-81
2024/03/19 09:52:02;;;;;;;1.60;1.30;;;14.60;98.20;;;;;;4893298;29;20999;-83
2024/03/19 09:54:28;;;;;;;1.50;0.90;;;14.70;98.20;;;;;;4898425;29;20462;-80
2024/03/19 09:56:56;;;;;;;1.50;1.00;;;14.80;98.20;;;;;;4898631;29;20461;-80
2024/03/19 09:59:25;;;;;;;1.50;1.03;;;14.90;98.20;;;;;;4903209;29;20460;-81
2024/03/19 10:01:53;;;;;;;1.50;1.10;;;15.00;98.20;;;;;;4899176;29;20476;-80
2024/03/19 10:04:20;;;;;;;1.50;1.00;;;15.10;98.20;;;;;;4906842;29;20474;-78
2024/03/19 10:06:47;;;;;;;1.50;1.00;;;15.10;98.20;;;;;;4899942;29;20485;-80
2024/03/19 10:09:16;;;;;;;1.53;1.10;;;15.20;98.20;;;;;;4893286;29;20485;-80
2024/03/19 10:11:43;;;;;;;1.50;1.00;;;15.30;98.20;;;;;;4899072;29;20540;-80
2024/03/19 10:14:10;;;;;;;1.53;1.00;;;15.40;98.20;;;;;;4898603;29;20469;-80
2024/03/19 10:16:40;;;;;;;1.50;1.00;;;15.40;98.20;;;;;;4898108;29;20859;-80
2024/03/19 10:19:08;;;;;;;1.50;0.90;;;15.40;98.20;;;;;;4892811;29;20541;-79
2024/03/19 10:21:35;;;;;;;1.50;1.00;;;15.60;98.20;;;;;;4899599;29;20489;-80
2024/03/19 10:24:08;;;;;;;1.50;0.90;;;15.70;98.20;;;;;;4898376;29;20825;-80
2024/03/19 10:26:36;;;;;;;2.63;1.87;;;16.00;98.20;;;;;;4897139;29;20486;-80
2024/03/19 10:29:03;;;;;;;1.50;0.90;;;16.30;98.20;;;;;;4897500;29;20779;-81
2024/03/19 10:31:30;;;;;;;1.50;0.90;;;16.60;98.20;;;;;;4897995;29;20481;-80
2024/03/19 10:33:59;;;;;;;1.50;0.90;;;16.80;98.20;;;;;;4897145;29;20525;-80
2024/03/19 10:36:32;;;;;;;1.50;0.90;;;17.00;98.20;;;;;;4899671;29;20517;-79
2024/03/19 10:39:00;;;;;;;1.50;0.90;;;16.90;98.20;;;;;;4898281;29;20492;-78
2024/03/19 10:41:30;;;;;;;1.50;0.90;;;16.80;98.20;;;;;;4898598;29;20472;-78
2024/03/19 10:44:00;;;;;;;1.50;1.00;;;16.70;98.20;;;;;;4896571;29;20822;-78
2024/03/19 10:46:29;;;;;;;1.50;0.90;;;16.60;98.20;;;;;;4899568;29;20489;-78
2024/03/19 10:48:56;;;;;;;1.50;0.90;;;16.60;98.20;;;;;;4898185;29;20890;-78
2024/03/19 10:51:24;;;;;;;1.50;1.00;;;16.60;98.20;;;;;;4898909;29;20465;-79
2024/03/19 10:53:53;;;;;;;1.50;0.90;;;16.70;98.20;;;;;;4900510;29;20500;-80
2024/03/19 10:56:24;;;;;;;1.50;0.90;;;16.80;98.20;;;;;;4901374;29;20461;-81
2024/03/19 10:58:50;;;;;;;1.50;0.90;;;17.00;98.20;;;;;;4896924;29;20494;-81
2024/03/19 11:01:20;;;;;;;1.50;0.90;;;17.00;98.20;;;;;;4897449;29;20484;-80
2024/03/19 11:03:53;;;;;;;1.50;0.97;;;17.00;98.20;;;;;;4890470;29;20969;-80
2024/03/19 11:06:22;;;;;;;1.50;0.90;;;17.00;98.20;;;;;;4901484;29;20491;-79
2024/03/19 11:08:54;;;;;;;1.50;0.90;;;17.10;98.20;;;;;;4897036;29;20493;-79
2024/03/19 11:11:21;;;;;;;1.50;0.90;;;17.10;98.20;;;;;;4891407;29;20470;-80
2024/03/19 11:13:51;;;;;;;1.50;0.90;;;17.00;98.20;;;;;;4895991;29;20476;-77
2024/03/19 11:16:21;;;;;;;1.50;0.90;;;17.10;98.20;;;;;;4898327;29;20537;-80
2024/03/19 11:18:51;;;;;;;1.50;0.90;;;17.20;98.20;;;;;;4893944;29;20497;-80
2024/03/19 11:21:22;;;;;;;1.50;0.90;;;17.30;98.20;;;;;;4900099;29;20477;-80
2024/03/19 11:23:51;;;;;;;1.50;0.90;;;17.60;98.20;;;;;;4899487;29;20466;-80
2024/03/19 11:26:18;;;;;;;1.50;0.90;;;17.80;98.20;;;;;;4900762;29;20497;-80
2024/03/19 11:29:00;;;;;;;1.50;0.90;;;18.10;98.20;;;;;;4898767;29;20489;-81
2024/03/19 11:31:38;;;;;;;1.60;1.07;;;18.50;98.20;;;;;;4899867;29;20493;-81
2024/03/19 11:34:05;;;;;;;1.50;0.90;;;18.80;96.80;;;;;;4898080;29;20477;-80
2024/03/19 11:36:32;;;;;;;1.50;0.90;;;19.00;95.20;;;;;;4899884;29;20471;-80
2024/03/19 11:38:59;;;;;;;1.50;0.90;;;19.00;93.50;;;;;;4899609;29;20488;-81
2024/03/19 11:41:25;;;;;;;1.50;1.00;;;19.10;95.00;;;;;;4895471;29;20984;-81
2024/03/19 11:43:53;;;;;;;1.50;1.10;;;19.40;93.80;;;;;;4902544;29;20965;-81
2024/03/19 11:46:22;;;;;;;1.50;0.90;;;19.50;92.90;;;;;;4895374;29;20492;-80
2024/03/19 11:48:51;;;;;;;1.50;0.90;;;19.60;93.20;;;;;;4906021;29;20564;-80
2024/03/19 11:51:18;;;;;;;1.50;0.90;;;19.70;90.50;;;;;;4904599;29;20461;-80
2024/03/19 11:53:45;;;;;;;1.50;0.90;;;19.80;91.30;;;;;;4899111;29;20499;-80
2024/03/19 11:56:12;;;;;;;1.50;0.90;;;19.90;89.50;;;;;;4898464;29;20465;-78
2024/03/19 11:58:39;;;;;;;1.50;0.90;;;20.00;91.20;;;;;;4901308;29;20492;-79
2024/03/19 12:01:07;;;;;;;1.70;1.10;;;20.10;90.00;;;;;;4900293;29;20472;-80
2024/03/19 12:03:34;;;;;;;1.50;1.00;;;20.20;89.50;;;;;;4904648;29;20469;-80
2024/03/19 12:06:02;;;;;;;1.50;0.90;;;20.40;89.40;;;;;;4905122;29;20495;-80
2024/03/19 12:08:29;;;;;;;1.50;0.87;;;20.50;89.00;;;;;;4906001;29;20511;-80
2024/03/19 12:11:03;;;;;;;1.50;0.90;;;20.50;88.20;;;;;;4903056;29;20529;-81
2024/03/19 12:13:30;;;;;;;1.50;0.80;;;20.30;86.90;;;;;;4908369;29;20476;-80
2024/03/19 12:15:57;;;;;;;1.50;0.90;;;20.20;88.00;;;;;;4904875;29;20467;-80
2024/03/19 12:18:26;;;;;;;1.50;0.90;;;20.20;90.40;;;;;;4905141;29;20489;-79
2024/03/19 12:20:53;;;;;;;1.50;0.90;;;20.40;87.60;;;;;;4903929;29;20462;-77
2024/03/19 12:23:21;;;;;;;1.50;0.90;;;20.50;88.40;;;;;;4902545;29;20468;-80
2024/03/19 12:25:47;;;;;;;1.43;0.80;;;20.70;88.20;;;;;;4902242;29;20558;-79
2024/03/19 12:28:17;;;;;;;1.50;0.90;;;20.80;87.30;;;;;;4903496;29;20489;-78
2024/03/19 12:30:45;;;;;;;1.50;0.90;;;20.90;86.10;;;;;;4901744;29;20477;-79
2024/03/19 12:33:20;;;;;;;1.50;0.90;;;20.90;87.60;;;;;;4903899;29;20992;-79
2024/03/19 12:35:48;;;;;;;1.50;0.90;;;20.90;85.70;;;;;;4903079;29;20469;-80
2024/03/19 12:38:15;;;;;;;1.50;0.90;;;20.70;85.50;;;;;;4900834;29;20508;-78
2024/03/19 12:40:44;;;;;;;1.50;0.80;;;20.60;87.90;;;;;;4904580;29;20471;-78
2024/03/19 12:43:11;;;;;;;1.50;1.00;;;20.60;85.90;;;;;;4904288;29;20474;-80
2024/03/19 12:45:38;;;;;;;1.83;1.63;;;20.60;86.30;;;;;;4905310;29;20528;-80
2024/03/19 12:48:06;;;;;;;1.50;1.00;;;20.80;86.60;;;;;;4902941;29;20493;-81
2024/03/19 12:50:33;;;;;;;1.47;0.80;;;20.90;84.90;;;;;;4903535;29;20633;-80
2024/03/19 12:53:00;;;;;;;1.47;0.90;;;20.80;84.90;;;;;;4902976;29;20479;-80